sensor_id;sensor_type;location;lat;lon;timestamp;temperature;humidity
12901;DHT22;6518;50.930;5.344;2023-02-28T00:01:06;1.30;79.00
12901;DHT22;6518;50.930;5.344;2023-02-28T00:03:33;1.30;79.00
12901;DHT22;6518;50.930;5.344;2023-02-28T00:06:01;1.30;79.00
12901;DHT22;6518;50.930;5.344;2023-02-28T00:08:28;1.30;79.00
12901;DHT22;6518;50.930;5.344;2023-02-28T00:10:55;1.30;79.00
12901;DHT22;6518;50.930;5.344;2023-02-28T00:13:23;1.30;79.30
12901;DHT22;6518;50.930;5.344;2023-02-28T00:15:59;1.20;79.30
12901;DHT22;6518;50.930;5.344;2023-02-28T00:18:26;1.20;79.50
12901;DHT22;6518;50.930;5.344;2023-02-28T00:20:53;1.20;79.40
12901;DHT22;6518;50.930;5.344;2023-02-28T00:23:20;1.20;79.30
12901;DHT22;6518;50.930;5.344;2023-02-28T00:25:47;1.20;79.40
12901;DHT22;6518;50.930;5.344;2023-02-28T00:28:13;1.20;79.60
12901;DHT22;6518;50.930;5.344;2023-02-28T00:30:42;1.20;79.70
12901;DHT22;6518;50.930;5.344;2023-02-28T00:33:09;1.10;79.80
12901;DHT22;6518;50.930;5.344;2023-02-28T00:35:36;1.10;80.00
12901;DHT22;6518;50.930;5.344;2023-02-28T00:38:03;1.10;80.00
12901;DHT22;6518;50.930;5.344;2023-02-28T00:40:30;1.10;80.00
12901;DHT22;6518;50.930;5.344;2023-02-28T00:42:57;1.10;80.00
12901;DHT22;6518;50.930;5.344;2023-02-28T00:45:24;1.10;80.20
12901;DHT22;6518;50.930;5.344;2023-02-28T00:47:52;1.10;80.10
12901;DHT22;6518;50.930;5.344;2023-02-28T00:50:20;1.10;80.20
12901;DHT22;6518;50.930;5.344;2023-02-28T00:52:47;1.00;80.30
12901;DHT22;6518;50.930;5.344;2023-02-28T00:55:14;1.00;80.50
12901;DHT22;6518;50.930;5.344;2023-02-28T00:57:41;1.00;80.40
12901;DHT22;6518;50.930;5.344;2023-02-28T01:00:08;1.00;80.60
12901;DHT22;6518;50.930;5.344;2023-02-28T01:02:36;1.00;80.70
12901;DHT22;6518;50.930;5.344;2023-02-28T01:05:05;0.90;80.80
12901;DHT22;6518;50.930;5.344;2023-02-28T01:07:32;1.00;80.60
12901;DHT22;6518;50.930;5.344;2023-02-28T01:09:59;1.00;80.80
12901;DHT22;6518;50.930;5.344;2023-02-28T01:12:25;1.00;80.90
12901;DHT22;6518;50.930;5.344;2023-02-28T01:14:52;0.90;80.80
12901;DHT22;6518;50.930;5.344;2023-02-28T01:17:19;0.90;80.90
12901;DHT22;6518;50.930;5.344;2023-02-28T01:19:46;0.90;81.00
12901;DHT22;6518;50.930;5.344;2023-02-28T01:22:14;0.90;81.00
12901;DHT22;6518;50.930;5.344;2023-02-28T01:24:40;0.90;81.10
12901;DHT22;6518;50.930;5.344;2023-02-28T01:27:07;0.90;81.00
12901;DHT22;6518;50.930;5.344;2023-02-28T01:29:34;0.80;81.00
12901;DHT22;6518;50.930;5.344;2023-02-28T01:32:01;0.90;81.10
12901;DHT22;6518;50.930;5.344;2023-02-28T01:34:27;0.80;81.00
12901;DHT22;6518;50.930;5.344;2023-02-28T01:36:54;0.90;81.10
12901;DHT22;6518;50.930;5.344;2023-02-28T01:39:25;0.80;80.90
12901;DHT22;6518;50.930;5.344;2023-02-28T01:41:52;0.80;81.00
12901;DHT22;6518;50.930;5.344;2023-02-28T01:47:24;0.80;81.00
12901;DHT22;6518;50.930;5.344;2023-02-28T01:49:52;0.80;81.10
12901;DHT22;6518;50.930;5.344;2023-02-28T01:52:20;0.80;81.10
12901;DHT22;6518;50.930;5.344;2023-02-28T01:54:51;0.80;81.00
12901;DHT22;6518;50.930;5.344;2023-02-28T01:57:21;0.70;81.20
12901;DHT22;6518;50.930;5.344;2023-02-28T01:59:53;0.70;81.40
12901;DHT22;6518;50.930;5.344;2023-02-28T02:02:23;0.70;81.70
12901;DHT22;6518;50.930;5.344;2023-02-28T02:04:54;0.70;81.80
12901;DHT22;6518;50.930;5.344;2023-02-28T02:07:22;0.60;81.80
12901;DHT22;6518;50.930;5.344;2023-02-28T02:09:59;0.60;82.00
12901;DHT22;6518;50.930;5.344;2023-02-28T02:12:39;0.60;82.10
12901;DHT22;6518;50.930;5.344;2023-02-28T02:15:16;0.60;82.10
12901;DHT22;6518;50.930;5.344;2023-02-28T02:17:49;0.60;82.20
12901;DHT22;6518;50.930;5.344;2023-02-28T02:26:48;0.50;82.50
12901;DHT22;6518;50.930;5.344;2023-02-28T02:35:14;0.40;83.00
12901;DHT22;6518;50.930;5.344;2023-02-28T02:37:47;0.40;83.00
12901;DHT22;6518;50.930;5.344;2023-02-28T02:40:18;0.40;83.10
12901;DHT22;6518;50.930;5.344;2023-02-28T02:42:51;0.40;83.30
12901;DHT22;6518;50.930;5.344;2023-02-28T02:45:24;0.40;83.30
12901;DHT22;6518;50.930;5.344;2023-02-28T02:47:53;0.40;83.30
12901;DHT22;6518;50.930;5.344;2023-02-28T02:50:26;0.40;83.40
12901;DHT22;6518;50.930;5.344;2023-02-28T02:52:58;0.40;83.60
12901;DHT22;6518;50.930;5.344;2023-02-28T02:55:26;0.40;83.50
12901;DHT22;6518;50.930;5.344;2023-02-28T02:57:57;0.40;83.60
12901;DHT22;6518;50.930;5.344;2023-02-28T03:00:29;0.40;83.40
12901;DHT22;6518;50.930;5.344;2023-02-28T03:02:57;0.40;83.40
12901;DHT22;6518;50.930;5.344;2023-02-28T03:05:28;0.40;83.60
12901;DHT22;6518;50.930;5.344;2023-02-28T03:07:56;0.30;83.60
12901;DHT22;6518;50.930;5.344;2023-02-28T03:10:29;0.30;83.60
12901;DHT22;6518;50.930;5.344;2023-02-28T03:13:07;0.30;83.60
12901;DHT22;6518;50.930;5.344;2023-02-28T03:15:47;0.30;83.70
12901;DHT22;6518;50.930;5.344;2023-02-28T03:18:24;0.30;83.70
12901;DHT22;6518;50.930;5.344;2023-02-28T03:21:02;0.30;83.80
12901;DHT22;6518;50.930;5.344;2023-02-28T03:23:37;0.30;83.90
12901;DHT22;6518;50.930;5.344;2023-02-28T03:26:10;0.30;83.90
12901;DHT22;6518;50.930;5.344;2023-02-28T03:28:42;0.30;83.90
12901;DHT22;6518;50.930;5.344;2023-02-28T03:31:16;0.30;83.80
12901;DHT22;6518;50.930;5.344;2023-02-28T03:33:48;0.20;83.80
12901;DHT22;6518;50.930;5.344;2023-02-28T03:36:24;0.20;83.90
12901;DHT22;6518;50.930;5.344;2023-02-28T03:38:55;0.20;84.10
12901;DHT22;6518;50.930;5.344;2023-02-28T03:41:31;0.10;84.40
12901;DHT22;6518;50.930;5.344;2023-02-28T03:44:03;0.20;84.60
12901;DHT22;6518;50.930;5.344;2023-02-28T03:46:36;0.20;84.70
12901;DHT22;6518;50.930;5.344;2023-02-28T03:49:11;0.20;84.40
12901;DHT22;6518;50.930;5.344;2023-02-28T03:51:42;0.10;84.50
12901;DHT22;6518;50.930;5.344;2023-02-28T03:54:15;0.20;84.80
12901;DHT22;6518;50.930;5.344;2023-02-28T03:56:47;0.10;84.60
12901;DHT22;6518;50.930;5.344;2023-02-28T03:59:18;0.10;84.80
12901;DHT22;6518;50.930;5.344;2023-02-28T04:01:48;0.10;84.90
12901;DHT22;6518;50.930;5.344;2023-02-28T04:04:16;0.10;85.00
12901;DHT22;6518;50.930;5.344;2023-02-28T04:06:45;0.10;85.00
12901;DHT22;6518;50.930;5.344;2023-02-28T04:09:14;0.10;85.00
12901;DHT22;6518;50.930;5.344;2023-02-28T04:11:42;0.10;85.00
12901;DHT22;6518;50.930;5.344;2023-02-28T04:14:11;0.10;85.30
12901;DHT22;6518;50.930;5.344;2023-02-28T04:16:39;0.10;85.30
12901;DHT22;6518;50.930;5.344;2023-02-28T04:19:08;0.00;85.40
12901;DHT22;6518;50.930;5.344;2023-02-28T04:21:37;0.00;85.50
12901;DHT22;6518;50.930;5.344;2023-02-28T04:24:06;0.00;85.70
12901;DHT22;6518;50.930;5.344;2023-02-28T04:26:36;-0.10;85.80
12901;DHT22;6518;50.930;5.344;2023-02-28T04:29:04;0.00;85.80
12901;DHT22;6518;50.930;5.344;2023-02-28T04:31:31;0.00;86.00
12901;DHT22;6518;50.930;5.344;2023-02-28T04:33:58;0.00;86.10
12901;DHT22;6518;50.930;5.344;2023-02-28T04:36:26;0.00;86.10
12901;DHT22;6518;50.930;5.344;2023-02-28T04:38:53;0.00;86.10
12901;DHT22;6518;50.930;5.344;2023-02-28T04:41:21;-0.10;86.40
12901;DHT22;6518;50.930;5.344;2023-02-28T04:43:48;-0.10;86.60
12901;DHT22;6518;50.930;5.344;2023-02-28T04:46:15;-0.10;86.60
12901;DHT22;6518;50.930;5.344;2023-02-28T04:48:43;-0.10;86.60
12901;DHT22;6518;50.930;5.344;2023-02-28T04:51:12;-0.10;87.30
12901;DHT22;6518;50.930;5.344;2023-02-28T04:53:40;-0.20;86.60
12901;DHT22;6518;50.930;5.344;2023-02-28T04:56:08;-0.10;87.00
12901;DHT22;6518;50.930;5.344;2023-02-28T04:58:38;-0.10;87.00
12901;DHT22;6518;50.930;5.344;2023-02-28T05:01:06;-0.20;86.90
12901;DHT22;6518;50.930;5.344;2023-02-28T05:03:40;-0.20;87.00
12901;DHT22;6518;50.930;5.344;2023-02-28T05:06:07;-0.20;87.10
12901;DHT22;6518;50.930;5.344;2023-02-28T05:08:34;-0.20;87.10
12901;DHT22;6518;50.930;5.344;2023-02-28T05:11:01;-0.20;87.30
12901;DHT22;6518;50.930;5.344;2023-02-28T05:13:28;-0.20;87.50
12901;DHT22;6518;50.930;5.344;2023-02-28T05:15:56;-0.20;87.60
12901;DHT22;6518;50.930;5.344;2023-02-28T05:18:23;-0.20;87.60
12901;DHT22;6518;50.930;5.344;2023-02-28T05:20:50;-0.30;87.70
12901;DHT22;6518;50.930;5.344;2023-02-28T05:23:17;-0.20;87.80
12901;DHT22;6518;50.930;5.344;2023-02-28T05:25:46;-0.30;87.80
12901;DHT22;6518;50.930;5.344;2023-02-28T05:28:13;-0.30;88.00
12901;DHT22;6518;50.930;5.344;2023-02-28T05:30:40;-0.30;88.20
12901;DHT22;6518;50.930;5.344;2023-02-28T05:33:11;-0.30;88.10
12901;DHT22;6518;50.930;5.344;2023-02-28T05:35:38;-0.30;88.30
12901;DHT22;6518;50.930;5.344;2023-02-28T05:38:05;-0.40;88.50
12901;DHT22;6518;50.930;5.344;2023-02-28T05:40:32;-0.40;88.60
12901;DHT22;6518;50.930;5.344;2023-02-28T05:42:59;-0.40;88.70
12901;DHT22;6518;50.930;5.344;2023-02-28T05:45:26;-0.40;88.60
12901;DHT22;6518;50.930;5.344;2023-02-28T05:47:54;-0.40;88.80
12901;DHT22;6518;50.930;5.344;2023-02-28T05:50:22;-0.50;89.00
12901;DHT22;6518;50.930;5.344;2023-02-28T05:52:49;-0.50;89.30
12901;DHT22;6518;50.930;5.344;2023-02-28T05:55:16;-0.50;89.50
12901;DHT22;6518;50.930;5.344;2023-02-28T05:57:44;-0.50;89.70
12901;DHT22;6518;50.930;5.344;2023-02-28T06:00:12;-0.60;90.00
12901;DHT22;6518;50.930;5.344;2023-02-28T06:02:40;-0.50;90.00
12901;DHT22;6518;50.930;5.344;2023-02-28T06:05:10;-0.50;90.00
12901;DHT22;6518;50.930;5.344;2023-02-28T06:07:40;-0.50;90.10
12901;DHT22;6518;50.930;5.344;2023-02-28T06:10:08;-0.50;90.10
12901;DHT22;6518;50.930;5.344;2023-02-28T06:12:35;-0.50;89.90
12901;DHT22;6518;50.930;5.344;2023-02-28T06:15:03;-0.50;90.00
12901;DHT22;6518;50.930;5.344;2023-02-28T06:17:30;-0.50;90.00
12901;DHT22;6518;50.930;5.344;2023-02-28T06:19:57;-0.60;90.00
12901;DHT22;6518;50.930;5.344;2023-02-28T06:22:24;-0.60;90.10
12901;DHT22;6518;50.930;5.344;2023-02-28T06:24:52;-0.60;90.30
12901;DHT22;6518;50.930;5.344;2023-02-28T06:27:20;-0.60;90.30
12901;DHT22;6518;50.930;5.344;2023-02-28T06:29:47;-0.60;90.30
12901;DHT22;6518;50.930;5.344;2023-02-28T06:32:14;-0.60;90.30
12901;DHT22;6518;50.930;5.344;2023-02-28T06:34:41;-0.60;90.30
12901;DHT22;6518;50.930;5.344;2023-02-28T06:37:08;-0.60;90.30
12901;DHT22;6518;50.930;5.344;2023-02-28T06:39:34;-0.60;90.10
12901;DHT22;6518;50.930;5.344;2023-02-28T06:42:03;-0.60;90.10
12901;DHT22;6518;50.930;5.344;2023-02-28T06:44:30;-0.50;90.00
12901;DHT22;6518;50.930;5.344;2023-02-28T06:47:00;-0.50;90.00
12901;DHT22;6518;50.930;5.344;2023-02-28T06:49:28;-0.50;90.00
12901;DHT22;6518;50.930;5.344;2023-02-28T06:51:55;-0.50;89.60
12901;DHT22;6518;50.930;5.344;2023-02-28T06:54:22;-0.50;90.10
12901;DHT22;6518;50.930;5.344;2023-02-28T06:56:50;-0.50;89.40
12901;DHT22;6518;50.930;5.344;2023-02-28T06:59:18;-0.40;89.50
12901;DHT22;6518;50.930;5.344;2023-02-28T07:01:45;-0.40;89.10
12901;DHT22;6518;50.930;5.344;2023-02-28T07:04:12;-0.40;88.70
12901;DHT22;6518;50.930;5.344;2023-02-28T07:06:39;-0.40;88.50
12901;DHT22;6518;50.930;5.344;2023-02-28T07:09:06;-0.40;88.50
12901;DHT22;6518;50.930;5.344;2023-02-28T07:11:33;-0.40;88.50
12901;DHT22;6518;50.930;5.344;2023-02-28T07:14:00;-0.30;88.10
12901;DHT22;6518;50.930;5.344;2023-02-28T07:16:28;-0.30;87.80
12901;DHT22;6518;50.930;5.344;2023-02-28T07:18:56;-0.20;88.40
12901;DHT22;6518;50.930;5.344;2023-02-28T07:21:23;-0.20;87.40
12901;DHT22;6518;50.930;5.344;2023-02-28T07:23:50;-0.10;87.20
12901;DHT22;6518;50.930;5.344;2023-02-28T07:26:18;0.00;86.80
12901;DHT22;6518;50.930;5.344;2023-02-28T07:28:47;0.00;86.00
12901;DHT22;6518;50.930;5.344;2023-02-28T07:31:15;0.00;86.10
12901;DHT22;6518;50.930;5.344;2023-02-28T07:33:44;0.00;85.70
12901;DHT22;6518;50.930;5.344;2023-02-28T07:36:13;0.10;85.70
12901;DHT22;6518;50.930;5.344;2023-02-28T07:38:41;0.10;85.50
12901;DHT22;6518;50.930;5.344;2023-02-28T07:41:09;0.20;85.20
12901;DHT22;6518;50.930;5.344;2023-02-28T07:43:36;0.30;84.60
12901;DHT22;6518;50.930;5.344;2023-02-28T07:46:04;0.30;84.50
12901;DHT22;6518;50.930;5.344;2023-02-28T07:48:32;0.30;84.10
12901;DHT22;6518;50.930;5.344;2023-02-28T07:51:00;0.40;84.00
12901;DHT22;6518;50.930;5.344;2023-02-28T07:53:27;0.40;84.00
12901;DHT22;6518;50.930;5.344;2023-02-28T07:55:55;0.50;83.70
12901;DHT22;6518;50.930;5.344;2023-02-28T07:58:22;0.60;83.20
12901;DHT22;6518;50.930;5.344;2023-02-28T08:00:49;0.60;82.60
12901;DHT22;6518;50.930;5.344;2023-02-28T08:03:17;0.70;82.50
12901;DHT22;6518;50.930;5.344;2023-02-28T08:05:44;0.80;82.10
12901;DHT22;6518;50.930;5.344;2023-02-28T08:08:12;0.90;81.40
12901;DHT22;6518;50.930;5.344;2023-02-28T08:10:40;0.90;81.20
12901;DHT22;6518;50.930;5.344;2023-02-28T08:13:07;1.00;81.00
12901;DHT22;6518;50.930;5.344;2023-02-28T08:15:33;1.10;80.40
12901;DHT22;6518;50.930;5.344;2023-02-28T08:18:01;1.20;79.80
12901;DHT22;6518;50.930;5.344;2023-02-28T08:20:28;1.20;79.60
12901;DHT22;6518;50.930;5.344;2023-02-28T08:22:56;1.30;79.40
12901;DHT22;6518;50.930;5.344;2023-02-28T08:25:24;1.30;78.80
12901;DHT22;6518;50.930;5.344;2023-02-28T08:27:51;1.40;78.10
12901;DHT22;6518;50.930;5.344;2023-02-28T08:30:18;1.50;76.90
12901;DHT22;6518;50.930;5.344;2023-02-28T08:32:45;1.50;76.70
12901;DHT22;6518;50.930;5.344;2023-02-28T08:35:12;1.60;76.60
12901;DHT22;6518;50.930;5.344;2023-02-28T08:37:39;1.60;76.20
12901;DHT22;6518;50.930;5.344;2023-02-28T08:40:07;1.70;75.50
12901;DHT22;6518;50.930;5.344;2023-02-28T08:42:36;1.70;74.90
12901;DHT22;6518;50.930;5.344;2023-02-28T08:45:03;1.80;74.70
12901;DHT22;6518;50.930;5.344;2023-02-28T08:47:30;1.90;73.80
12901;DHT22;6518;50.930;5.344;2023-02-28T08:49:57;1.90;73.70
12901;DHT22;6518;50.930;5.344;2023-02-28T08:52:24;1.90;73.50
12901;DHT22;6518;50.930;5.344;2023-02-28T08:54:51;1.90;73.80
12901;DHT22;6518;50.930;5.344;2023-02-28T08:57:17;1.90;73.00
12901;DHT22;6518;50.930;5.344;2023-02-28T08:59:46;1.90;72.70
12901;DHT22;6518;50.930;5.344;2023-02-28T09:02:13;1.90;73.00
12901;DHT22;6518;50.930;5.344;2023-02-28T09:04:41;1.90;72.70
12901;DHT22;6518;50.930;5.344;2023-02-28T09:07:08;2.00;71.30
12901;DHT22;6518;50.930;5.344;2023-02-28T09:09:34;2.00;71.10
12901;DHT22;6518;50.930;5.344;2023-02-28T09:12:01;2.00;71.20
12901;DHT22;6518;50.930;5.344;2023-02-28T09:14:28;2.10;70.40
12901;DHT22;6518;50.930;5.344;2023-02-28T09:16:56;2.20;69.90
12901;DHT22;6518;50.930;5.344;2023-02-28T09:19:24;2.30;69.50
12901;DHT22;6518;50.930;5.344;2023-02-28T09:21:51;2.30;67.60
12901;DHT22;6518;50.930;5.344;2023-02-28T09:24:18;2.40;68.20
12901;DHT22;6518;50.930;5.344;2023-02-28T09:26:46;2.40;68.10
12901;DHT22;6518;50.930;5.344;2023-02-28T09:29:12;2.50;67.50
12901;DHT22;6518;50.930;5.344;2023-02-28T09:31:39;2.60;65.30
12901;DHT22;6518;50.930;5.344;2023-02-28T09:34:08;2.70;63.40
12901;DHT22;6518;50.930;5.344;2023-02-28T09:36:35;2.80;63.10
12901;DHT22;6518;50.930;5.344;2023-02-28T09:39:03;2.90;60.40
12901;DHT22;6518;50.930;5.344;2023-02-28T09:41:36;2.90;59.70
12901;DHT22;6518;50.930;5.344;2023-02-28T09:44:17;2.80;59.60
12901;DHT22;6518;50.930;5.344;2023-02-28T09:46:49;3.00;59.80
12901;DHT22;6518;50.930;5.344;2023-02-28T09:49:24;3.20;59.50
12901;DHT22;6518;50.930;5.344;2023-02-28T09:51:56;3.30;58.90
12901;DHT22;6518;50.930;5.344;2023-02-28T09:54:28;3.30;57.90
12901;DHT22;6518;50.930;5.344;2023-02-28T09:56:59;3.30;58.30
12901;DHT22;6518;50.930;5.344;2023-02-28T09:59:48;3.30;58.30
12901;DHT22;6518;50.930;5.344;2023-02-28T10:02:39;3.30;57.80
12901;DHT22;6518;50.930;5.344;2023-02-28T10:05:12;3.30;58.40
12901;DHT22;6518;50.930;5.344;2023-02-28T10:07:51;3.40;58.70
12901;DHT22;6518;50.930;5.344;2023-02-28T10:10:23;3.40;59.10
12901;DHT22;6518;50.930;5.344;2023-02-28T10:12:53;3.50;57.80
12901;DHT22;6518;50.930;5.344;2023-02-28T10:15:23;3.40;57.10
12901;DHT22;6518;50.930;5.344;2023-02-28T10:17:54;3.40;57.30
12901;DHT22;6518;50.930;5.344;2023-02-28T10:20:25;3.40;57.60
12901;DHT22;6518;50.930;5.344;2023-02-28T10:22:58;3.40;57.40
12901;DHT22;6518;50.930;5.344;2023-02-28T10:25:34;3.40;57.40
12901;DHT22;6518;50.930;5.344;2023-02-28T10:28:09;3.40;57.50
12901;DHT22;6518;50.930;5.344;2023-02-28T10:30:39;3.50;56.40
12901;DHT22;6518;50.930;5.344;2023-02-28T10:33:17;3.50;56.40
12901;DHT22;6518;50.930;5.344;2023-02-28T10:35:46;3.60;55.50
12901;DHT22;6518;50.930;5.344;2023-02-28T10:38:17;3.60;55.80
12901;DHT22;6518;50.930;5.344;2023-02-28T10:40:44;3.50;55.50
12901;DHT22;6518;50.930;5.344;2023-02-28T10:43:21;3.40;55.50
12901;DHT22;6518;50.930;5.344;2023-02-28T10:45:57;3.40;56.60
12901;DHT22;6518;50.930;5.344;2023-02-28T10:48:33;3.50;56.50
12901;DHT22;6518;50.930;5.344;2023-02-28T10:51:02;3.70;57.60
12901;DHT22;6518;50.930;5.344;2023-02-28T10:53:33;3.80;55.90
12901;DHT22;6518;50.930;5.344;2023-02-28T10:56:03;3.80;54.60
12901;DHT22;6518;50.930;5.344;2023-02-28T10:58:40;3.70;54.10
12901;DHT22;6518;50.930;5.344;2023-02-28T11:01:14;3.80;53.80
12901;DHT22;6518;50.930;5.344;2023-02-28T11:03:41;3.80;53.10
12901;DHT22;6518;50.930;5.344;2023-02-28T11:06:15;3.90;52.60
12901;DHT22;6518;50.930;5.344;2023-02-28T11:08:45;3.90;52.40
12901;DHT22;6518;50.930;5.344;2023-02-28T11:11:13;3.90;52.40
12901;DHT22;6518;50.930;5.344;2023-02-28T11:13:40;3.90;53.00
12901;DHT22;6518;50.930;5.344;2023-02-28T11:16:09;4.00;52.60
12901;DHT22;6518;50.930;5.344;2023-02-28T11:18:41;4.00;52.40
12901;DHT22;6518;50.930;5.344;2023-02-28T11:21:16;4.10;52.60
12901;DHT22;6518;50.930;5.344;2023-02-28T11:23:45;4.20;51.30
12901;DHT22;6518;50.930;5.344;2023-02-28T11:26:35;4.20;51.30
12901;DHT22;6518;50.930;5.344;2023-02-28T11:29:16;4.30;51.50
12901;DHT22;6518;50.930;5.344;2023-02-28T11:32:02;4.40;51.60
12901;DHT22;6518;50.930;5.344;2023-02-28T11:34:30;4.40;51.90
12901;DHT22;6518;50.930;5.344;2023-02-28T11:36:59;4.50;50.70
12901;DHT22;6518;50.930;5.344;2023-02-28T11:39:31;4.50;50.40
12901;DHT22;6518;50.930;5.344;2023-02-28T11:42:31;4.50;50.20
12901;DHT22;6518;50.930;5.344;2023-02-28T11:45:12;4.50;50.10
12901;DHT22;6518;50.930;5.344;2023-02-28T11:47:48;4.50;50.40
12901;DHT22;6518;50.930;5.344;2023-02-28T11:50:33;4.50;50.20
12901;DHT22;6518;50.930;5.344;2023-02-28T11:53:14;4.60;50.40
12901;DHT22;6518;50.930;5.344;2023-02-28T11:55:45;4.70;50.30
12901;DHT22;6518;50.930;5.344;2023-02-28T11:58:19;4.70;50.30
12901;DHT22;6518;50.930;5.344;2023-02-28T12:01:07;4.70;50.50
12901;DHT22;6518;50.930;5.344;2023-02-28T12:03:44;4.70;50.90
12901;DHT22;6518;50.930;5.344;2023-02-28T12:06:18;4.60;51.00
12901;DHT22;6518;50.930;5.344;2023-02-28T12:09:01;4.70;51.10
12901;DHT22;6518;50.930;5.344;2023-02-28T12:11:40;4.70;50.50
12901;DHT22;6518;50.930;5.344;2023-02-28T12:17:24;4.70;51.10
12901;DHT22;6518;50.930;5.344;2023-02-28T12:20:00;4.70;50.80
12901;DHT22;6518;50.930;5.344;2023-02-28T12:22:32;4.70;50.80
12901;DHT22;6518;50.930;5.344;2023-02-28T12:28:17;4.80;50.50
12901;DHT22;6518;50.930;5.344;2023-02-28T12:30:52;4.70;50.10
12901;DHT22;6518;50.930;5.344;2023-02-28T12:33:24;4.70;50.50
12901;DHT22;6518;50.930;5.344;2023-02-28T12:35:54;4.70;51.00
12901;DHT22;6518;50.930;5.344;2023-02-28T12:38:24;4.70;50.60
12901;DHT22;6518;50.930;5.344;2023-02-28T12:40:54;4.70;50.90
12901;DHT22;6518;50.930;5.344;2023-02-28T12:43:28;4.80;50.90
12901;DHT22;6518;50.930;5.344;2023-02-28T12:46:00;4.70;50.80
12901;DHT22;6518;50.930;5.344;2023-02-28T12:48:32;4.60;50.90
12901;DHT22;6518;50.930;5.344;2023-02-28T12:51:03;4.70;51.10
12901;DHT22;6518;50.930;5.344;2023-02-28T12:53:38;4.70;51.00
12901;DHT22;6518;50.930;5.344;2023-02-28T12:56:15;4.80;51.10
12901;DHT22;6518;50.930;5.344;2023-02-28T12:58:48;4.90;51.00
12901;DHT22;6518;50.930;5.344;2023-02-28T13:01:56;4.90;51.20
12901;DHT22;6518;50.930;5.344;2023-02-28T13:05:06;4.90;51.10
12901;DHT22;6518;50.930;5.344;2023-02-28T13:07:53;4.80;50.70
12901;DHT22;6518;50.930;5.344;2023-02-28T13:10:38;4.80;51.20
12901;DHT22;6518;50.930;5.344;2023-02-28T13:13:11;4.70;51.10
12901;DHT22;6518;50.930;5.344;2023-02-28T13:15:58;4.70;50.90
12901;DHT22;6518;50.930;5.344;2023-02-28T13:18:36;4.70;51.40
12901;DHT22;6518;50.930;5.344;2023-02-28T13:21:06;4.70;51.30
12901;DHT22;6518;50.930;5.344;2023-02-28T13:26:22;4.80;51.20
12901;DHT22;6518;50.930;5.344;2023-02-28T13:29:27;4.80;51.40
12901;DHT22;6518;50.930;5.344;2023-02-28T13:35:36;4.80;52.00
12901;DHT22;6518;50.930;5.344;2023-02-28T13:38:16;4.80;51.90
12901;DHT22;6518;50.930;5.344;2023-02-28T13:40:43;4.80;51.70
12901;DHT22;6518;50.930;5.344;2023-02-28T13:43:10;4.80;52.30
12901;DHT22;6518;50.930;5.344;2023-02-28T13:45:37;4.80;52.00
12901;DHT22;6518;50.930;5.344;2023-02-28T13:48:16;4.80;52.00
12901;DHT22;6518;50.930;5.344;2023-02-28T13:50:45;4.80;52.00
12901;DHT22;6518;50.930;5.344;2023-02-28T13:53:34;4.80;52.30
12901;DHT22;6518;50.930;5.344;2023-02-28T13:56:18;4.80;52.50
12901;DHT22;6518;50.930;5.344;2023-02-28T13:58:53;4.80;52.00
12901;DHT22;6518;50.930;5.344;2023-02-28T14:01:36;4.90;51.70
12901;DHT22;6518;50.930;5.344;2023-02-28T14:04:34;4.80;52.00
12901;DHT22;6518;50.930;5.344;2023-02-28T14:07:07;4.90;52.10
12901;DHT22;6518;50.930;5.344;2023-02-28T14:09:37;4.90;52.30
12901;DHT22;6518;50.930;5.344;2023-02-28T14:18:19;5.00;53.40
12901;DHT22;6518;50.930;5.344;2023-02-28T14:20:48;5.10;53.60
12901;DHT22;6518;50.930;5.344;2023-02-28T14:23:29;5.10;53.70
12901;DHT22;6518;50.930;5.344;2023-02-28T14:26:02;5.00;53.40
12901;DHT22;6518;50.930;5.344;2023-02-28T14:28:47;5.00;53.60
12901;DHT22;6518;50.930;5.344;2023-02-28T14:31:21;5.00;53.40
12901;DHT22;6518;50.930;5.344;2023-02-28T14:34:11;5.00;53.90
12901;DHT22;6518;50.930;5.344;2023-02-28T14:36:41;5.00;53.60
12901;DHT22;6518;50.930;5.344;2023-02-28T14:39:13;5.00;53.40
12901;DHT22;6518;50.930;5.344;2023-02-28T14:41:42;5.10;53.20
12901;DHT22;6518;50.930;5.344;2023-02-28T14:44:17;5.10;53.20
12901;DHT22;6518;50.930;5.344;2023-02-28T14:46:46;5.10;53.40
12901;DHT22;6518;50.930;5.344;2023-02-28T14:49:18;5.00;53.60
12901;DHT22;6518;50.930;5.344;2023-02-28T14:51:45;5.00;53.70
12901;DHT22;6518;50.930;5.344;2023-02-28T14:54:16;5.00;54.00
12901;DHT22;6518;50.930;5.344;2023-02-28T14:56:48;5.00;55.00
12901;DHT22;6518;50.930;5.344;2023-02-28T14:59:28;5.10;57.10
12901;DHT22;6518;50.930;5.344;2023-02-28T15:02:15;5.20;57.10
12901;DHT22;6518;50.930;5.344;2023-02-28T15:04:42;5.20;54.10
12901;DHT22;6518;50.930;5.344;2023-02-28T15:07:10;5.20;53.60
12901;DHT22;6518;50.930;5.344;2023-02-28T15:09:38;5.10;54.20
12901;DHT22;6518;50.930;5.344;2023-02-28T15:12:05;5.10;54.40
12901;DHT22;6518;50.930;5.344;2023-02-28T15:14:32;5.10;55.00
12901;DHT22;6518;50.930;5.344;2023-02-28T15:17:05;5.00;54.10
12901;DHT22;6518;50.930;5.344;2023-02-28T15:19:36;5.00;53.60
12901;DHT22;6518;50.930;5.344;2023-02-28T15:22:08;5.00;54.00
12901;DHT22;6518;50.930;5.344;2023-02-28T15:24:42;5.00;53.40
12901;DHT22;6518;50.930;5.344;2023-02-28T15:27:13;4.80;53.70
12901;DHT22;6518;50.930;5.344;2023-02-28T15:29:46;4.80;53.80
12901;DHT22;6518;50.930;5.344;2023-02-28T15:32:27;4.80;54.10
12901;DHT22;6518;50.930;5.344;2023-02-28T15:34:55;4.80;54.30
12901;DHT22;6518;50.930;5.344;2023-02-28T15:37:36;4.80;54.20
12901;DHT22;6518;50.930;5.344;2023-02-28T15:40:12;4.80;53.70
12901;DHT22;6518;50.930;5.344;2023-02-28T15:42:39;4.70;53.70
12901;DHT22;6518;50.930;5.344;2023-02-28T15:45:26;4.70;54.00
12901;DHT22;6518;50.930;5.344;2023-02-28T15:47:54;4.80;54.00
12901;DHT22;6518;50.930;5.344;2023-02-28T15:50:21;4.80;54.00
12901;DHT22;6518;50.930;5.344;2023-02-28T15:52:48;4.80;53.70
12901;DHT22;6518;50.930;5.344;2023-02-28T15:55:19;4.80;53.60
12901;DHT22;6518;50.930;5.344;2023-02-28T15:57:47;4.80;53.70
12901;DHT22;6518;50.930;5.344;2023-02-28T16:00:18;4.80;54.00
12901;DHT22;6518;50.930;5.344;2023-02-28T16:02:45;4.80;54.00
12901;DHT22;6518;50.930;5.344;2023-02-28T16:05:21;4.90;54.00
12901;DHT22;6518;50.930;5.344;2023-02-28T16:07:53;4.80;54.20
12901;DHT22;6518;50.930;5.344;2023-02-28T16:10:24;4.80;54.60
12901;DHT22;6518;50.930;5.344;2023-02-28T16:12:53;4.80;54.70
12901;DHT22;6518;50.930;5.344;2023-02-28T16:15:22;4.80;54.60
12901;DHT22;6518;50.930;5.344;2023-02-28T16:17:50;4.80;54.40
12901;DHT22;6518;50.930;5.344;2023-02-28T16:20:20;4.80;54.60
12901;DHT22;6518;50.930;5.344;2023-02-28T16:22:47;4.70;54.80
12901;DHT22;6518;50.930;5.344;2023-02-28T16:25:15;4.70;54.80
12901;DHT22;6518;50.930;5.344;2023-02-28T16:27:46;4.60;54.30
12901;DHT22;6518;50.930;5.344;2023-02-28T16:30:19;4.60;54.40
12901;DHT22;6518;50.930;5.344;2023-02-28T16:32:46;4.60;54.50
12901;DHT22;6518;50.930;5.344;2023-02-28T16:35:14;4.60;54.70
12901;DHT22;6518;50.930;5.344;2023-02-28T16:37:41;4.60;54.90
12901;DHT22;6518;50.930;5.344;2023-02-28T16:40:13;4.60;55.00
12901;DHT22;6518;50.930;5.344;2023-02-28T16:42:41;4.60;54.70
12901;DHT22;6518;50.930;5.344;2023-02-28T16:45:16;4.60;54.80
12901;DHT22;6518;50.930;5.344;2023-02-28T16:47:44;4.60;54.70
12901;DHT22;6518;50.930;5.344;2023-02-28T16:50:17;4.60;54.80
12901;DHT22;6518;50.930;5.344;2023-02-28T16:52:44;4.60;54.90
12901;DHT22;6518;50.930;5.344;2023-02-28T16:55:11;4.50;55.00
12901;DHT22;6518;50.930;5.344;2023-02-28T16:57:39;4.50;55.00